createdAt,value
2022-10-11T00:02:18.180Z,13.12
2022-10-11T00:04:46.277Z,13.18
2022-10-11T00:07:15.378Z,13.19
2022-10-11T00:09:43.243Z,13.15
2022-10-11T00:12:11.292Z,13.17
2022-10-11T00:14:39.732Z,13.16
2022-10-11T00:17:08.620Z,13.05
2022-10-11T00:19:36.309Z,13.11
2022-10-11T00:22:04.161Z,13.14
2022-10-11T00:24:33.269Z,13.11
2022-10-11T00:27:00.990Z,13.18
2022-10-11T00:29:28.683Z,13.20
2022-10-11T00:31:56.437Z,13.26
2022-10-11T00:34:24.381Z,13.26
2022-10-11T00:36:52.119Z,13.22
2022-10-11T00:39:19.802Z,13.26
2022-10-11T00:41:49.293Z,13.30
2022-10-11T00:44:20.083Z,13.29
2022-10-11T00:46:55.993Z,13.31
2022-10-11T00:49:34.404Z,13.39
2022-10-11T00:52:07.938Z,13.41
2022-10-11T00:54:40.448Z,13.49
2022-10-11T00:57:15.460Z,13.53
2022-10-11T00:59:46.488Z,13.48
2022-10-11T01:02:15.414Z,13.37
2022-10-11T01:04:43.729Z,13.34
2022-10-11T01:07:12.198Z,13.39
2022-10-11T01:09:40.170Z,13.35
2022-10-11T01:12:16.767Z,13.30
2022-10-11T01:14:56.727Z,13.25
2022-10-11T01:17:34.131Z,13.22
2022-10-11T01:20:32.113Z,13.23
2022-10-11T01:23:22.806Z,13.29
2022-10-11T01:26:08.077Z,13.34
2022-10-11T01:28:49.440Z,13.29
2022-10-11T01:31:25.941Z,13.28
2022-10-11T01:34:00.438Z,13.25
2022-10-11T01:36:32.829Z,13.28
2022-10-11T01:39:05.475Z,13.33
2022-10-11T01:41:39.514Z,13.31
2022-10-11T01:44:09.265Z,13.28
2022-10-11T01:46:38.506Z,13.29
2022-10-11T01:49:06.799Z,13.28
2022-10-11T01:51:37.181Z,13.26
2022-10-11T01:54:21.623Z,13.25
2022-10-11T01:57:25.288Z,13.32
2022-10-11T02:00:03.374Z,13.33
2022-10-11T02:02:45.783Z,13.29
2022-10-11T02:05:21.468Z,13.36
2022-10-11T02:07:57.114Z,13.39
2022-10-11T02:10:31.352Z,13.41
2022-10-11T02:13:04.509Z,13.35
2022-10-11T02:15:35.056Z,13.30
2022-10-11T02:18:09.498Z,13.34
2022-10-11T02:20:40.716Z,13.37
2022-10-11T02:23:13.111Z,13.42
2022-10-11T02:25:41.484Z,13.39
2022-10-11T02:28:14.145Z,13.37
2022-10-11T02:30:43.741Z,13.38
2022-10-11T02:33:16.519Z,13.42
2022-10-11T02:35:50.469Z,13.37
2022-10-11T02:38:23.532Z,13.31
2022-10-11T02:40:56.233Z,13.45
2022-10-11T02:43:31.193Z,13.44
2022-10-11T02:46:01.104Z,13.40
2022-10-11T02:48:31.603Z,13.41
2022-10-11T02:50:59.731Z,13.34
2022-10-11T02:53:28.107Z,13.34
2022-10-11T02:55:56.781Z,13.36
2022-10-11T02:58:25.360Z,13.37
2022-10-11T03:00:53.218Z,13.30
2022-10-11T03:03:21.527Z,13.31
2022-10-11T03:05:50.586Z,13.33
2022-10-11T03:08:18.932Z,13.29
2022-10-11T03:10:46.674Z,13.27
2022-10-11T03:13:18.087Z,13.25
2022-10-11T03:16:00.719Z,13.24
2022-10-11T03:18:30.926Z,13.27
2022-10-11T03:21:00.142Z,13.22
2022-10-11T03:23:27.936Z,13.21
2022-10-11T03:25:55.754Z,13.20
2022-10-11T03:28:23.541Z,13.13
2022-10-11T03:30:52.335Z,13.15
2022-10-11T03:33:20.643Z,13.06
2022-10-11T03:35:50.027Z,13.08
2022-10-11T03:38:21.500Z,13.09
2022-10-11T03:40:49.292Z,13.05
2022-10-11T03:43:17.274Z,13.09
2022-10-11T03:45:45.464Z,13.01
2022-10-11T03:48:13.313Z,13.02
2022-10-11T03:50:41.087Z,12.99
2022-10-11T03:53:09.374Z,12.97
2022-10-11T03:55:41.130Z,12.98
2022-10-11T03:58:09.395Z,12.95
2022-10-11T04:00:37.707Z,12.95
2022-10-11T04:03:05.705Z,12.95
2022-10-11T04:05:33.437Z,12.92
2022-10-11T04:08:01.319Z,12.94
2022-10-11T04:10:30.947Z,12.92
2022-10-11T04:12:59.986Z,12.88
2022-10-11T04:15:27.749Z,12.84
2022-10-11T04:17:55.425Z,12.75
2022-10-11T04:20:23.121Z,12.68
2022-10-11T04:22:50.866Z,12.60
2022-10-11T04:25:18.696Z,12.58
2022-10-11T04:27:54.520Z,12.48
2022-10-11T04:30:24.614Z,12.53
2022-10-11T04:32:52.376Z,12.56
2022-10-11T04:35:20.503Z,12.50
2022-10-11T04:37:48.234Z,12.46
2022-10-11T04:40:16.011Z,12.55
2022-10-11T04:42:43.771Z,12.52
2022-10-11T04:45:11.814Z,12.48
2022-10-11T04:47:41.593Z,12.38
2022-10-11T04:50:09.730Z,12.36
2022-10-11T04:52:37.419Z,12.38
2022-10-11T04:55:05.763Z,12.35
2022-10-11T04:57:33.525Z,12.39
2022-10-11T05:00:01.196Z,12.40
2022-10-11T05:02:29.005Z,12.43
2022-10-11T05:04:58.499Z,12.46
2022-10-11T05:07:26.323Z,12.46
2022-10-11T05:09:54.648Z,12.53
2022-10-11T05:12:22.421Z,12.54
2022-10-11T05:14:50.273Z,12.56
2022-10-11T05:17:18.100Z,12.60
2022-10-11T05:19:45.821Z,12.63
2022-10-11T05:22:14.951Z,12.66
2022-10-11T05:24:42.644Z,12.70
2022-10-11T05:27:10.367Z,12.71
2022-10-11T05:29:38.105Z,12.73
2022-10-11T05:32:06.246Z,12.75
2022-10-11T05:34:33.987Z,12.81
2022-10-11T05:37:01.806Z,12.86
2022-10-11T05:39:30.959Z,12.90
2022-10-11T05:41:58.734Z,12.91
2022-10-11T05:44:26.773Z,13.02
2022-10-11T05:46:54.875Z,13.08
2022-10-11T05:49:22.804Z,13.08
2022-10-11T05:51:50.591Z,13.06
2022-10-11T05:54:18.292Z,13.09
2022-10-11T05:56:47.402Z,13.10
2022-10-11T05:59:15.333Z,13.16
2022-10-11T06:01:43.257Z,13.22
2022-10-11T06:04:11.977Z,13.20
2022-10-11T06:06:39.721Z,13.18
2022-10-11T06:09:07.423Z,13.22
2022-10-11T06:11:35.204Z,13.24
2022-10-11T06:14:04.395Z,13.22
2022-10-11T06:16:32.314Z,13.29
2022-10-11T06:19:00.191Z,13.39
2022-10-11T06:21:28.047Z,13.37
2022-10-11T06:24:01.167Z,13.33
2022-10-11T06:26:29.430Z,13.33
2022-10-11T06:28:57.371Z,13.34
2022-10-11T06:31:26.701Z,13.32
2022-10-11T06:33:54.418Z,13.37
2022-10-11T06:36:22.130Z,13.43
2022-10-11T06:38:52.620Z,13.44
2022-10-11T06:41:23.219Z,13.54
2022-10-11T06:43:52.067Z,13.53
2022-10-11T06:46:21.005Z,13.53
2022-10-11T06:48:51.352Z,13.51
2022-10-11T06:51:21.669Z,13.58
2022-10-11T06:53:50.880Z,13.62
2022-10-11T06:56:19.558Z,13.64
2022-10-11T06:58:47.455Z,13.74
2022-10-11T07:01:19.042Z,13.72
2022-10-11T07:03:47.269Z,13.76
2022-10-11T07:06:18.767Z,13.83
2022-10-11T07:08:46.561Z,13.92
2022-10-11T07:11:17.069Z,14.08
2022-10-11T07:13:49.430Z,13.98
2022-10-11T07:16:17.562Z,14.12
2022-10-11T07:18:45.490Z,14.25
2022-10-11T07:21:15.212Z,14.56
2022-10-11T07:23:44.544Z,14.47
2022-10-11T07:26:13.272Z,14.39
2022-10-11T07:28:41.362Z,14.46
2022-10-11T07:31:11.583Z,14.28
2022-10-11T07:33:39.530Z,14.45
2022-10-11T07:36:08.782Z,14.57
2022-10-11T07:38:40.060Z,15.04
2022-10-11T07:41:09.582Z,15.76
2022-10-11T07:43:38.015Z,16.48
2022-10-11T07:46:06.691Z,17.15
2022-10-11T07:48:36.248Z,17.25
2022-10-11T07:51:06.647Z,17.91
2022-10-11T07:53:39.365Z,17.64
2022-10-11T07:56:09.492Z,17.98
2022-10-11T07:58:37.304Z,18.41
2022-10-11T08:01:05.518Z,18.68
2022-10-11T08:03:33.318Z,18.56
2022-10-11T08:06:02.864Z,18.93
2022-10-11T08:08:31.095Z,18.45
2022-10-11T08:10:59.393Z,18.02
2022-10-11T08:13:28.822Z,17.47
2022-10-11T08:15:56.617Z,17.95
2022-10-11T08:18:24.932Z,18.96
2022-10-11T08:20:52.794Z,19.56
2022-10-11T08:23:20.926Z,19.97
2022-10-11T08:25:49.275Z,19.62
2022-10-11T08:28:17.933Z,20.28
2022-10-11T08:30:52.205Z,21.09
2022-10-11T08:33:21.493Z,20.91
2022-10-11T08:35:50.394Z,20.88
2022-10-11T08:38:18.678Z,20.53
2022-10-11T08:40:48.379Z,20.84
2022-10-11T08:43:30.413Z,21.06
2022-10-11T08:46:01.434Z,21.38
2022-10-11T08:48:35.431Z,20.65
2022-10-11T08:51:07.109Z,20.54
2022-10-11T08:53:45.060Z,21.41
2022-10-11T08:56:15.480Z,21.83
2022-10-11T08:58:48.158Z,20.50
2022-10-11T09:01:21.768Z,20.30
2022-10-11T09:03:50.965Z,20.85
2022-10-11T09:06:34.583Z,20.16
2022-10-11T09:09:23.988Z,20.83
2022-10-11T09:12:05.452Z,20.65
2022-10-11T09:15:01.193Z,20.66
2022-10-11T09:17:43.654Z,20.90
2022-10-11T09:20:40.974Z,20.56
2022-10-11T09:23:19.128Z,20.20
2022-10-11T09:25:55.761Z,20.17
2022-10-11T09:28:30.443Z,19.52
2022-10-11T09:30:59.658Z,19.86
2022-10-11T09:33:34.663Z,18.99
2022-10-11T09:36:04.029Z,19.20
2022-10-11T09:38:42.172Z,19.16
2022-10-11T09:41:18.071Z,19.30
2022-10-11T09:43:50.915Z,19.03
2022-10-11T09:46:23.161Z,19.15
2022-10-11T09:48:54.545Z,19.02
2022-10-11T09:51:25.126Z,19.10
2022-10-11T09:53:57.282Z,18.76
2022-10-11T09:56:27.620Z,18.76
2022-10-11T09:59:21.813Z,18.97
2022-10-11T10:01:49.598Z,18.61
2022-10-11T10:04:18.841Z,18.61
2022-10-11T10:06:46.756Z,18.99
2022-10-11T10:09:25.971Z,19.33
2022-10-11T10:11:54.657Z,18.95
2022-10-11T10:14:25.654Z,19.16
2022-10-11T10:17:05.082Z,19.18
2022-10-11T10:19:44.987Z,19.62
2022-10-11T10:22:20.292Z,19.41
2022-10-11T10:24:50.191Z,19.95
2022-10-11T10:27:22.050Z,20.87
2022-10-11T10:30:20.734Z,20.47
2022-10-11T10:32:54.878Z,20.59
2022-10-11T10:35:32.485Z,21.06
2022-10-11T10:38:08.866Z,21.59
2022-10-11T10:40:46.466Z,20.98
2022-10-11T10:43:17.244Z,20.60
2022-10-11T10:46:17.085Z,19.90
2022-10-11T10:51:52.705Z,21.07
2022-10-11T10:54:36.417Z,22.81
2022-10-11T10:57:11.839Z,22.58
2022-10-11T11:00:05.437Z,22.65
2022-10-11T11:02:41.894Z,22.96
2022-10-11T11:05:21.558Z,23.26
2022-10-11T11:07:55.461Z,22.99
2022-10-11T11:10:26.494Z,24.26
2022-10-11T11:13:09.025Z,25.08
2022-10-11T11:15:42.131Z,23.95
2022-10-11T11:18:26.842Z,25.01
2022-10-11T11:21:18.049Z,24.84
2022-10-11T11:23:56.032Z,24.72
2022-10-11T11:26:31.101Z,25.05
2022-10-11T11:29:10.638Z,23.30
2022-10-11T11:31:55.787Z,22.85
2022-10-11T11:34:29.563Z,23.79
2022-10-11T11:37:01.249Z,22.93
2022-10-11T11:39:34.117Z,21.97
2022-10-11T11:42:06.799Z,22.75
2022-10-11T11:44:38.154Z,22.44
2022-10-11T11:47:10.977Z,22.13
2022-10-11T11:49:45.310Z,23.96
2022-10-11T11:52:18.790Z,23.60
2022-10-11T11:54:53.044Z,24.38
2022-10-11T11:57:30.049Z,24.86
2022-10-11T12:00:05.333Z,23.87
2022-10-11T12:02:44.644Z,24.39
2022-10-11T12:05:16.412Z,25.55
2022-10-11T12:07:58.705Z,25.38
2022-10-11T12:10:33.296Z,25.19
2022-10-11T12:13:10.593Z,25.33
2022-10-11T12:15:38.674Z,24.40
2022-10-11T12:18:15.526Z,25.52
2022-10-11T12:20:44.958Z,24.29
2022-10-11T12:23:55.538Z,24.72
2022-10-11T12:26:37.817Z,24.91
2022-10-11T12:29:28.777Z,24.40
2022-10-11T12:32:27.480Z,22.94
2022-10-11T12:35:48.595Z,23.18
2022-10-11T12:38:20.996Z,23.82
2022-10-11T12:40:51.235Z,22.71
2022-10-11T12:43:30.775Z,21.98
2022-10-11T12:45:58.645Z,22.43
2022-10-11T12:48:49.434Z,21.93
2022-10-11T12:51:37.270Z,21.13
2022-10-11T12:54:27.449Z,20.60
2022-10-11T12:57:17.177Z,20.46
2022-10-11T12:59:47.154Z,20.35
2022-10-11T13:02:28.961Z,20.58
2022-10-11T13:05:08.090Z,20.80
2022-10-11T13:07:36.738Z,20.44
2022-10-11T13:10:06.485Z,20.32
2022-10-11T13:12:44.251Z,19.87
2022-10-11T13:15:19.058Z,20.35
2022-10-11T13:17:48.661Z,20.18
2022-10-11T13:20:20.465Z,19.95
2022-10-11T13:22:50.813Z,19.94
2022-10-11T13:25:22.046Z,20.06
2022-10-11T13:27:52.315Z,20.52
2022-10-11T13:30:25.469Z,20.09
2022-10-11T13:32:53.811Z,19.85
2022-10-11T13:35:26.797Z,20.23
2022-10-11T13:37:54.682Z,20.05
2022-10-11T13:40:23.279Z,20.05
2022-10-11T13:42:53.125Z,20.06
2022-10-11T13:45:24.352Z,20.04
2022-10-11T13:47:53.573Z,19.89
2022-10-11T13:50:26.509Z,19.74
2022-10-11T13:52:57.627Z,19.48
2022-10-11T13:55:29.264Z,19.75
2022-10-11T13:57:58.851Z,19.79
2022-10-11T14:00:32.028Z,19.85
2022-10-11T14:03:03.783Z,19.82
2022-10-11T14:05:35.451Z,19.87
2022-10-11T14:08:06.206Z,19.73
2022-10-11T14:10:34.581Z,19.98
2022-10-11T14:13:21.156Z,19.91
2022-10-11T14:16:00.259Z,19.79
2022-10-11T14:18:44.411Z,19.84
2022-10-11T14:21:31.741Z,19.79
2022-10-11T14:24:01.345Z,19.70
2022-10-11T14:26:33.845Z,19.83
2022-10-11T14:29:04.049Z,19.69
2022-10-11T14:31:35.808Z,19.59
2022-10-11T14:34:06.382Z,19.54
2022-10-11T14:36:34.305Z,19.51
2022-10-11T14:39:01.990Z,19.61
2022-10-11T14:41:29.714Z,19.72
2022-10-11T14:43:57.849Z,19.84
2022-10-11T14:46:27.773Z,19.77
2022-10-11T14:48:57.003Z,19.73
2022-10-11T14:51:30.706Z,19.56
2022-10-11T14:53:58.795Z,19.60
2022-10-11T14:56:26.529Z,19.45
2022-10-11T14:58:54.221Z,19.51
2022-10-11T15:01:21.938Z,19.65
2022-10-11T15:03:49.747Z,19.59
2022-10-11T15:06:21.476Z,19.37
2022-10-11T15:08:49.539Z,19.49
2022-10-11T15:11:18.914Z,19.47
2022-10-11T15:13:46.802Z,19.37
2022-10-11T15:16:16.723Z,19.27
2022-10-11T15:18:44.936Z,19.30
2022-10-11T15:21:14.852Z,19.23
2022-10-11T15:23:43.961Z,18.97
2022-10-11T15:26:15.156Z,19.01
2022-10-11T15:28:43.309Z,18.91
2022-10-11T15:31:11.190Z,19.05
2022-10-11T15:33:39.893Z,19.06
2022-10-11T15:36:09.946Z,19.03
2022-10-11T15:38:38.116Z,18.93
2022-10-11T15:41:08.373Z,19.02
2022-10-11T15:43:36.105Z,18.96
2022-10-11T15:46:04.541Z,18.98
2022-10-11T15:48:33.017Z,18.89
2022-10-11T15:51:01.043Z,18.74
2022-10-11T15:53:31.065Z,18.77
2022-10-11T15:56:02.229Z,18.69
2022-10-11T15:58:33.665Z,18.64
2022-10-11T16:01:05.463Z,18.57
2022-10-11T16:03:34.475Z,18.39
2022-10-11T16:06:05.476Z,18.33
2022-10-11T16:08:33.561Z,18.26
2022-10-11T16:11:01.588Z,18.20
2022-10-11T16:13:29.338Z,18.21
2022-10-11T16:15:58.808Z,18.08
2022-10-11T16:18:27.609Z,18.03
2022-10-11T16:20:58.181Z,18.00
2022-10-11T16:23:26.144Z,17.87
2022-10-11T16:26:01.359Z,17.80
2022-10-11T16:28:29.885Z,17.60
2022-10-11T16:30:59.331Z,17.60
2022-10-11T16:33:27.675Z,17.46
2022-10-11T16:36:15.410Z,17.39
2022-10-11T16:38:43.177Z,17.30
2022-10-11T16:41:11.026Z,17.33
2022-10-11T16:43:38.784Z,17.29
2022-10-11T16:46:08.787Z,17.30
2022-10-11T16:48:36.769Z,17.30
2022-10-11T16:51:08.554Z,17.21
2022-10-11T16:53:36.472Z,17.18
2022-10-11T16:56:07.456Z,17.08
2022-10-11T16:58:36.345Z,17.08
2022-10-11T17:01:11.213Z,17.00
2022-10-11T17:03:39.374Z,16.89
2022-10-11T17:06:08.277Z,16.85
2022-10-11T17:08:36.803Z,16.85
2022-10-11T17:11:05.013Z,16.82
2022-10-11T17:13:33.185Z,16.64
2022-10-11T17:16:00.851Z,16.48
2022-10-11T17:18:30.004Z,16.51
2022-10-11T17:21:04.641Z,16.44
2022-10-11T17:23:32.587Z,16.43
2022-10-11T17:26:07.317Z,16.39
2022-10-11T17:28:38.651Z,16.40
2022-10-11T17:31:08.172Z,16.35
2022-10-11T17:33:37.612Z,16.30
2022-10-11T17:36:14.954Z,16.23
2022-10-11T17:38:42.688Z,16.26
2022-10-11T17:41:11.354Z,16.18
2022-10-11T17:43:39.513Z,16.14
2022-10-11T17:46:09.123Z,16.10
2022-10-11T17:48:39.298Z,16.14
2022-10-11T17:51:09.156Z,16.08
2022-10-11T17:53:37.601Z,16.05
2022-10-11T17:56:06.846Z,16.04
2022-10-11T17:58:34.746Z,16.02
2022-10-11T18:01:04.281Z,15.98
2022-10-11T18:03:32.718Z,15.95
2022-10-11T18:06:03.704Z,15.85
2022-10-11T18:08:32.755Z,15.85
2022-10-11T18:11:03.246Z,16.22
2022-10-11T18:13:31.186Z,16.34
2022-10-11T18:15:59.015Z,15.88
2022-10-11T18:18:26.786Z,15.47
2022-10-11T18:20:54.494Z,15.35
2022-10-11T18:23:23.555Z,15.28
2022-10-11T18:25:51.237Z,15.11
2022-10-11T18:28:19.141Z,15.07
2022-10-11T18:30:48.323Z,15.14
2022-10-11T18:33:17.450Z,15.08
2022-10-11T18:35:45.145Z,14.98
2022-10-11T18:38:12.925Z,14.91
2022-10-11T18:40:46.868Z,14.99
2022-10-11T18:43:14.981Z,14.87
2022-10-11T18:45:42.804Z,14.80
2022-10-11T18:48:10.545Z,14.58
2022-10-11T18:50:38.290Z,14.24
2022-10-11T18:53:06.889Z,14.54
2022-10-11T18:55:34.616Z,14.42
2022-10-11T18:58:03.710Z,14.41
2022-10-11T19:00:40.783Z,14.32
2022-10-11T19:03:09.119Z,14.35
2022-10-11T19:05:39.494Z,14.36
2022-10-11T19:08:07.259Z,14.38
2022-10-11T19:10:35.486Z,14.33
2022-10-11T19:13:04.605Z,14.39
2022-10-11T19:15:32.305Z,14.41
2022-10-11T19:17:59.986Z,14.22
2022-10-11T19:20:27.698Z,14.16
2022-10-11T19:22:55.419Z,14.07
2022-10-11T19:25:23.764Z,14.09
2022-10-11T19:27:51.451Z,14.12
2022-10-11T19:30:21.737Z,14.10
2022-10-11T19:32:49.470Z,14.11
2022-10-11T19:35:19.921Z,14.15
2022-10-11T19:37:47.922Z,14.17
2022-10-11T19:40:15.736Z,14.12
2022-10-11T19:42:43.406Z,14.09
2022-10-11T19:45:11.522Z,14.05
2022-10-11T19:47:40.602Z,14.06
2022-10-11T19:50:09.151Z,14.07
2022-10-11T19:52:40.356Z,14.06
2022-10-11T19:55:11.053Z,14.08
2022-10-11T19:57:38.818Z,13.95
2022-10-11T20:00:07.370Z,13.94
2022-10-11T20:02:35.034Z,13.85
2022-10-11T20:05:04.508Z,13.80
2022-10-11T20:07:32.500Z,13.93
2022-10-11T20:10:00.533Z,13.95
2022-10-11T20:12:29.502Z,13.95
2022-10-11T20:14:57.286Z,13.98
2022-10-11T20:17:45.072Z,13.97
2022-10-11T20:20:14.253Z,13.90
2022-10-11T20:22:41.974Z,13.93
2022-10-11T20:25:10.194Z,13.92
2022-10-11T20:27:38.005Z,13.86
2022-10-11T20:30:06.644Z,13.71
2022-10-11T20:32:34.340Z,13.70
2022-10-11T20:35:02.270Z,13.68
2022-10-11T20:37:31.673Z,13.61
2022-10-11T20:39:59.528Z,13.57
2022-10-11T20:42:29.693Z,13.54
2022-10-11T20:44:59.000Z,13.55
2022-10-11T20:47:26.718Z,13.51
2022-10-11T20:49:54.544Z,13.44
2022-10-11T20:52:22.238Z,13.48
2022-10-11T20:54:51.315Z,13.42
2022-10-11T20:57:19.121Z,13.34
2022-10-11T20:59:46.838Z,13.29
2022-10-11T21:02:18.837Z,13.29
2022-10-11T21:04:46.795Z,13.35
2022-10-11T21:07:14.570Z,13.26
2022-10-11T21:09:42.291Z,13.24
2022-10-11T21:12:11.352Z,13.27
2022-10-11T21:14:39.054Z,13.22
2022-10-11T21:17:06.746Z,13.15
2022-10-11T21:19:34.494Z,13.13
2022-10-11T21:22:02.222Z,13.10
2022-10-11T21:24:30.055Z,13.08
2022-10-11T21:27:00.617Z,13.11
2022-10-11T21:29:30.603Z,13.08
2022-10-11T21:31:58.295Z,13.05
2022-10-11T21:34:25.985Z,13.07
2022-10-11T21:36:53.644Z,13.03
2022-10-11T21:39:21.529Z,12.97
2022-10-11T21:41:49.323Z,12.93
2022-10-11T21:44:17.186Z,12.91
2022-10-11T21:49:33.928Z,12.86
2022-10-11T21:52:01.821Z,12.89
2022-10-11T21:54:29.671Z,12.85
2022-10-11T21:56:57.402Z,12.81
2022-10-11T21:59:25.159Z,12.80
2022-10-11T22:01:58.080Z,12.85
2022-10-11T22:04:28.537Z,12.85
2022-10-11T22:06:56.521Z,12.82
2022-10-11T22:09:24.285Z,12.83
2022-10-11T22:11:51.946Z,12.81
2022-10-11T22:14:19.640Z,12.84
2022-10-11T22:16:47.358Z,12.78
2022-10-11T22:19:16.479Z,12.72
2022-10-11T22:21:45.243Z,12.83
2022-10-11T22:24:13.764Z,12.77
2022-10-11T22:26:41.516Z,12.78
2022-10-11T22:29:09.231Z,12.63
2022-10-11T22:31:37.144Z,12.63
2022-10-11T22:34:04.904Z,12.72
2022-10-11T22:36:34.519Z,12.75
2022-10-11T22:39:07.505Z,12.70
2022-10-11T22:41:36.105Z,12.77
2022-10-11T22:44:03.947Z,12.91
2022-10-11T22:46:31.944Z,12.90
2022-10-11T22:48:59.704Z,12.89
2022-10-11T22:51:27.479Z,12.98
2022-10-11T22:53:56.612Z,13.05
2022-10-11T22:56:24.231Z,13.03
2022-10-11T22:58:51.945Z,13.14
2022-10-11T23:01:19.653Z,13.26
2022-10-11T23:03:50.633Z,13.24
2022-10-11T23:06:18.702Z,13.29
2022-10-11T23:08:46.380Z,13.38
2022-10-11T23:11:15.446Z,13.47
2022-10-11T23:13:43.150Z,13.32
2022-10-11T23:16:12.740Z,13.21
2022-10-11T23:18:40.680Z,13.20
2022-10-11T23:21:09.202Z,13.08
2022-10-11T23:23:37.118Z,13.22
2022-10-11T23:26:07.214Z,13.20
2022-10-11T23:28:36.458Z,13.18
2022-10-11T23:31:08.760Z,13.05
2022-10-11T23:33:36.725Z,12.98
2022-10-11T23:36:04.927Z,13.04
2022-10-11T23:38:32.803Z,13.00
2022-10-11T23:41:00.583Z,12.91
2022-10-11T23:43:28.609Z,12.93
2022-10-11T23:45:57.750Z,12.71
2022-10-11T23:48:25.438Z,12.75
2022-10-11T23:50:53.213Z,12.79
2022-10-11T23:53:20.932Z,12.75
2022-10-11T23:55:48.636Z,12.86
2022-10-11T23:58:16.498Z,12.86
